Terminal Aerodrome Forecast
Issued by NWS

Home | Current Version | Previous Version | Graphics & Text | Print | Product List | Glossary On
Versions: 1 2 3 4 5 6 7 8 9 10 11 12 13 14 15 16 17 18 19 20 21 22 23 24
717
FTUS43 KABR 091901 AAA
TAFPIR
TAF AMD
KPIR 091901Z 0919/1018 06009KT 5SM -SN OVC020
      TEMPO 0919/0921 1SM -SN
     FM100100 VRB06KT P6SM BKN025
     FM101200 09010KT 6SM -SN OVC008
     FM101300 10011KT 3SM -SN OVC010
     FM101400 10012KT 1 1/2SM -SN OVC010=

USA.gov is the U.S. government's official web portal to all federal, state and local government web resources and services.